sensor_id;sensor_type;location;lat;lon;timestamp;P1;durP1;ratioP1;P2;durP2;ratioP2
13014;SDS011;6573;57.696;11.950;2024-01-30T00:02:04;53.50;;;23.50;;
13014;SDS011;6573;57.696;11.950;2024-01-30T00:04:33;51.30;;;24.40;;
13014;SDS011;6573;57.696;11.950;2024-01-30T00:07:01;50.17;;;24.50;;
13014;SDS011;6573;57.696;11.950;2024-01-30T00:09:31;57.30;;;25.13;;
13014;SDS011;6573;57.696;11.950;2024-01-30T00:12:02;50.43;;;24.20;;
13014;SDS011;6573;57.696;11.950;2024-01-30T00:14:31;44.87;;;22.70;;
13014;SDS011;6573;57.696;11.950;2024-01-30T00:17:00;47.77;;;23.63;;
13014;SDS011;6573;57.696;11.950;2024-01-30T00:19:30;48.23;;;24.70;;
13014;SDS011;6573;57.696;11.950;2024-01-30T00:21:59;47.23;;;24.43;;
13014;SDS011;6573;57.696;11.950;2024-01-30T00:24:28;48.40;;;24.13;;
13014;SDS011;6573;57.696;11.950;2024-01-30T00:26:56;44.77;;;24.03;;
13014;SDS011;6573;57.696;11.950;2024-01-30T00:29:25;46.00;;;24.03;;
13014;SDS011;6573;57.696;11.950;2024-01-30T00:31:57;47.57;;;24.70;;
13014;SDS011;6573;57.696;11.950;2024-01-30T00:34:25;40.73;;;22.63;;
13014;SDS011;6573;57.696;11.950;2024-01-30T00:36:56;44.33;;;22.67;;
13014;SDS011;6573;57.696;11.950;2024-01-30T00:39:25;44.13;;;24.23;;
13014;SDS011;6573;57.696;11.950;2024-01-30T00:41:56;43.80;;;23.67;;
13014;SDS011;6573;57.696;11.950;2024-01-30T00:44:29;41.60;;;22.53;;
13014;SDS011;6573;57.696;11.950;2024-01-30T00:46:57;50.17;;;24.10;;
13014;SDS011;6573;57.696;11.950;2024-01-30T00:49:26;47.13;;;22.93;;
13014;SDS011;6573;57.696;11.950;2024-01-30T00:51:58;42.90;;;23.97;;
13014;SDS011;6573;57.696;11.950;2024-01-30T00:54:28;45.90;;;24.23;;
13014;SDS011;6573;57.696;11.950;2024-01-30T00:56:56;42.77;;;23.67;;
13014;SDS011;6573;57.696;11.950;2024-01-30T00:59:25;42.53;;;23.13;;
13014;SDS011;6573;57.696;11.950;2024-01-30T01:01:53;36.50;;;22.40;;
13014;SDS011;6573;57.696;11.950;2024-01-30T01:04:22;32.40;;;20.37;;
13014;SDS011;6573;57.696;11.950;2024-01-30T01:06:51;34.87;;;21.40;;
13014;SDS011;6573;57.696;11.950;2024-01-30T01:09:22;36.53;;;22.20;;
13014;SDS011;6573;57.696;11.950;2024-01-30T01:11:51;35.90;;;21.70;;
13014;SDS011;6573;57.696;11.950;2024-01-30T01:14:20;32.77;;;21.60;;
13014;SDS011;6573;57.696;11.950;2024-01-30T01:16:50;28.57;;;19.83;;
13014;SDS011;6573;57.696;11.950;2024-01-30T01:19:19;32.80;;;20.90;;
13014;SDS011;6573;57.696;11.950;2024-01-30T01:21:48;32.40;;;20.67;;
13014;SDS011;6573;57.696;11.950;2024-01-30T01:24:17;34.00;;;21.20;;
13014;SDS011;6573;57.696;11.950;2024-01-30T01:26:49;33.43;;;21.37;;
13014;SDS011;6573;57.696;11.950;2024-01-30T01:29:18;33.20;;;20.57;;
13014;SDS011;6573;57.696;11.950;2024-01-30T01:31:56;30.83;;;20.23;;
13014;SDS011;6573;57.696;11.950;2024-01-30T01:34:27;33.67;;;21.87;;
13014;SDS011;6573;57.696;11.950;2024-01-30T01:36:56;29.73;;;21.07;;
13014;SDS011;6573;57.696;11.950;2024-01-30T01:39:25;31.20;;;20.50;;
13014;SDS011;6573;57.696;11.950;2024-01-30T01:41:58;33.53;;;20.33;;
13014;SDS011;6573;57.696;11.950;2024-01-30T01:44:30;29.57;;;19.00;;
13014;SDS011;6573;57.696;11.950;2024-01-30T01:46:59;30.97;;;19.90;;
13014;SDS011;6573;57.696;11.950;2024-01-30T01:49:28;30.07;;;19.93;;
13014;SDS011;6573;57.696;11.950;2024-01-30T01:51:57;30.30;;;19.80;;
13014;SDS011;6573;57.696;11.950;2024-01-30T01:54:27;28.13;;;18.60;;
13014;SDS011;6573;57.696;11.950;2024-01-30T01:57:00;28.20;;;17.57;;
13014;SDS011;6573;57.696;11.950;2024-01-30T01:59:29;27.87;;;18.40;;
13014;SDS011;6573;57.696;11.950;2024-01-30T02:01:58;25.40;;;17.47;;
13014;SDS011;6573;57.696;11.950;2024-01-30T02:04:29;23.37;;;17.03;;
13014;SDS011;6573;57.696;11.950;2024-01-30T02:06:57;25.30;;;17.27;;
13014;SDS011;6573;57.696;11.950;2024-01-30T02:09:26;23.67;;;15.50;;
13014;SDS011;6573;57.696;11.950;2024-01-30T02:11:56;24.87;;;17.33;;
13014;SDS011;6573;57.696;11.950;2024-01-30T02:14:26;24.00;;;16.47;;
13014;SDS011;6573;57.696;11.950;2024-01-30T02:16:57;24.67;;;16.77;;
13014;SDS011;6573;57.696;11.950;2024-01-30T02:19:27;24.27;;;16.40;;
13014;SDS011;6573;57.696;11.950;2024-01-30T02:21:57;20.47;;;15.43;;
13014;SDS011;6573;57.696;11.950;2024-01-30T02:24:26;22.90;;;15.33;;
13014;SDS011;6573;57.696;11.950;2024-01-30T02:26:54;20.90;;;15.30;;
13014;SDS011;6573;57.696;11.950;2024-01-30T02:29:24;20.00;;;14.83;;
13014;SDS011;6573;57.696;11.950;2024-01-30T02:31:57;21.90;;;15.67;;
13014;SDS011;6573;57.696;11.950;2024-01-30T02:34:26;19.97;;;14.23;;
13014;SDS011;6573;57.696;11.950;2024-01-30T02:36:58;20.23;;;14.80;;
13014;SDS011;6573;57.696;11.950;2024-01-30T02:39:27;18.63;;;13.60;;
13014;SDS011;6573;57.696;11.950;2024-01-30T02:41:56;18.17;;;13.63;;
13014;SDS011;6573;57.696;11.950;2024-01-30T02:47:22;21.40;;;15.27;;
13014;SDS011;6573;57.696;11.950;2024-01-30T02:49:52;18.90;;;14.00;;
13014;SDS011;6573;57.696;11.950;2024-01-30T02:52:24;20.60;;;14.53;;
13014;SDS011;6573;57.696;11.950;2024-01-30T02:54:52;19.50;;;14.73;;
13014;SDS011;6573;57.696;11.950;2024-01-30T02:57:23;19.67;;;13.77;;
13014;SDS011;6573;57.696;11.950;2024-01-30T02:59:54;19.67;;;14.30;;
13014;SDS011;6573;57.696;11.950;2024-01-30T03:02:29;19.73;;;13.83;;
13014;SDS011;6573;57.696;11.950;2024-01-30T03:05:02;18.93;;;14.17;;
13014;SDS011;6573;57.696;11.950;2024-01-30T03:07:37;18.10;;;13.67;;
13014;SDS011;6573;57.696;11.950;2024-01-30T03:10:08;19.33;;;13.90;;
13014;SDS011;6573;57.696;11.950;2024-01-30T03:12:39;18.67;;;14.33;;
13014;SDS011;6573;57.696;11.950;2024-01-30T03:15:08;19.73;;;14.40;;
13014;SDS011;6573;57.696;11.950;2024-01-30T03:17:37;18.50;;;13.23;;
13014;SDS011;6573;57.696;11.950;2024-01-30T03:20:07;19.40;;;14.47;;
13014;SDS011;6573;57.696;11.950;2024-01-30T03:22:39;19.47;;;14.23;;
13014;SDS011;6573;57.696;11.950;2024-01-30T03:25:07;18.20;;;14.27;;
13014;SDS011;6573;57.696;11.950;2024-01-30T03:27:36;19.40;;;13.83;;
13014;SDS011;6573;57.696;11.950;2024-01-30T03:30:06;17.33;;;13.30;;
13014;SDS011;6573;57.696;11.950;2024-01-30T03:32:35;19.27;;;14.33;;
13014;SDS011;6573;57.696;11.950;2024-01-30T03:35:04;18.20;;;14.00;;
13014;SDS011;6573;57.696;11.950;2024-01-30T03:37:34;18.20;;;13.77;;
13014;SDS011;6573;57.696;11.950;2024-01-30T03:40:04;18.47;;;13.03;;
13014;SDS011;6573;57.696;11.950;2024-01-30T03:42:47;15.27;;;12.67;;
13014;SDS011;6573;57.696;11.950;2024-01-30T03:45:16;17.23;;;13.07;;
13014;SDS011;6573;57.696;11.950;2024-01-30T03:47:46;17.60;;;12.90;;
13014;SDS011;6573;57.696;11.950;2024-01-30T03:50:14;17.47;;;12.87;;
13014;SDS011;6573;57.696;11.950;2024-01-30T03:52:45;15.13;;;12.50;;
13014;SDS011;6573;57.696;11.950;2024-01-30T03:55:17;16.27;;;12.37;;
13014;SDS011;6573;57.696;11.950;2024-01-30T03:57:53;15.83;;;12.70;;
13014;SDS011;6573;57.696;11.950;2024-01-30T04:00:29;17.00;;;13.03;;
13014;SDS011;6573;57.696;11.950;2024-01-30T04:02:58;14.33;;;11.80;;
13014;SDS011;6573;57.696;11.950;2024-01-30T04:05:33;15.27;;;12.10;;
13014;SDS011;6573;57.696;11.950;2024-01-30T04:08:08;14.10;;;11.50;;
13014;SDS011;6573;57.696;11.950;2024-01-30T04:10:39;14.70;;;12.30;;
13014;SDS011;6573;57.696;11.950;2024-01-30T04:13:07;13.83;;;11.53;;
13014;SDS011;6573;57.696;11.950;2024-01-30T04:15:38;14.13;;;11.80;;
13014;SDS011;6573;57.696;11.950;2024-01-30T04:18:07;15.50;;;12.57;;
13014;SDS011;6573;57.696;11.950;2024-01-30T04:20:36;14.83;;;11.80;;
13014;SDS011;6573;57.696;11.950;2024-01-30T04:23:05;14.27;;;11.50;;
13014;SDS011;6573;57.696;11.950;2024-01-30T04:25:41;15.83;;;12.57;;
13014;SDS011;6573;57.696;11.950;2024-01-30T04:28:10;16.53;;;12.53;;
13014;SDS011;6573;57.696;11.950;2024-01-30T04:30:48;15.47;;;12.30;;
13014;SDS011;6573;57.696;11.950;2024-01-30T04:33:17;16.67;;;13.10;;
13014;SDS011;6573;57.696;11.950;2024-01-30T04:35:46;16.57;;;12.63;;
13014;SDS011;6573;57.696;11.950;2024-01-30T04:38:18;16.70;;;12.07;;
13014;SDS011;6573;57.696;11.950;2024-01-30T04:40:48;16.60;;;12.97;;
13014;SDS011;6573;57.696;11.950;2024-01-30T04:43:17;17.87;;;12.77;;
13014;SDS011;6573;57.696;11.950;2024-01-30T04:45:49;18.30;;;13.27;;
13014;SDS011;6573;57.696;11.950;2024-01-30T04:48:18;17.53;;;13.03;;
13014;SDS011;6573;57.696;11.950;2024-01-30T04:50:47;19.83;;;14.33;;
13014;SDS011;6573;57.696;11.950;2024-01-30T04:53:16;18.83;;;14.17;;
13014;SDS011;6573;57.696;11.950;2024-01-30T04:55:45;18.70;;;13.47;;
13014;SDS011;6573;57.696;11.950;2024-01-30T04:58:15;17.27;;;13.67;;
13014;SDS011;6573;57.696;11.950;2024-01-30T05:00:44;19.30;;;13.77;;
13014;SDS011;6573;57.696;11.950;2024-01-30T05:03:18;17.37;;;12.90;;
13014;SDS011;6573;57.696;11.950;2024-01-30T05:05:49;16.57;;;13.00;;
13014;SDS011;6573;57.696;11.950;2024-01-30T05:08:17;16.03;;;12.70;;
13014;SDS011;6573;57.696;11.950;2024-01-30T05:10:46;15.70;;;12.10;;
13014;SDS011;6573;57.696;11.950;2024-01-30T05:13:16;17.80;;;11.97;;
13014;SDS011;6573;57.696;11.950;2024-01-30T05:15:45;16.33;;;12.13;;
13014;SDS011;6573;57.696;11.950;2024-01-30T05:18:16;18.73;;;12.87;;
13014;SDS011;6573;57.696;11.950;2024-01-30T05:20:49;20.30;;;12.13;;
13014;SDS011;6573;57.696;11.950;2024-01-30T05:23:18;18.67;;;11.87;;
13014;SDS011;6573;57.696;11.950;2024-01-30T05:25:48;15.17;;;11.37;;
13014;SDS011;6573;57.696;11.950;2024-01-30T05:28:18;17.43;;;10.73;;
13014;SDS011;6573;57.696;11.950;2024-01-30T05:30:48;15.77;;;10.57;;
13014;SDS011;6573;57.696;11.950;2024-01-30T05:33:18;14.27;;;11.23;;
13014;SDS011;6573;57.696;11.950;2024-01-30T05:35:48;14.67;;;10.70;;
13014;SDS011;6573;57.696;11.950;2024-01-30T05:38:21;16.03;;;10.97;;
13014;SDS011;6573;57.696;11.950;2024-01-30T05:40:50;15.23;;;10.50;;
13014;SDS011;6573;57.696;11.950;2024-01-30T05:43:22;12.30;;;9.63;;
13014;SDS011;6573;57.696;11.950;2024-01-30T05:45:51;11.87;;;9.13;;
13014;SDS011;6573;57.696;11.950;2024-01-30T05:48:20;12.77;;;9.70;;
13014;SDS011;6573;57.696;11.950;2024-01-30T05:50:48;12.67;;;9.77;;
13014;SDS011;6573;57.696;11.950;2024-01-30T05:53:18;13.07;;;9.37;;
13014;SDS011;6573;57.696;11.950;2024-01-30T05:55:47;15.03;;;10.00;;
13014;SDS011;6573;57.696;11.950;2024-01-30T05:58:17;13.97;;;10.50;;
13014;SDS011;6573;57.696;11.950;2024-01-30T06:00:51;13.27;;;10.20;;
13014;SDS011;6573;57.696;11.950;2024-01-30T06:03:22;16.17;;;11.20;;
13014;SDS011;6573;57.696;11.950;2024-01-30T06:05:59;14.27;;;10.83;;
13014;SDS011;6573;57.696;11.950;2024-01-30T06:08:27;16.80;;;10.93;;
13014;SDS011;6573;57.696;11.950;2024-01-30T06:11:03;13.37;;;10.53;;
13014;SDS011;6573;57.696;11.950;2024-01-30T06:13:32;14.57;;;11.23;;
13014;SDS011;6573;57.696;11.950;2024-01-30T06:16:08;18.13;;;11.43;;
13014;SDS011;6573;57.696;11.950;2024-01-30T06:18:38;15.73;;;11.50;;
13014;SDS011;6573;57.696;11.950;2024-01-30T06:21:06;16.90;;;11.67;;
13014;SDS011;6573;57.696;11.950;2024-01-30T06:23:38;16.03;;;12.00;;
13014;SDS011;6573;57.696;11.950;2024-01-30T06:26:07;20.13;;;12.00;;
13014;SDS011;6573;57.696;11.950;2024-01-30T06:28:36;20.90;;;12.27;;
13014;SDS011;6573;57.696;11.950;2024-01-30T06:31:05;19.50;;;12.03;;
13014;SDS011;6573;57.696;11.950;2024-01-30T06:33:35;18.47;;;12.00;;
13014;SDS011;6573;57.696;11.950;2024-01-30T06:36:05;18.73;;;12.20;;
13014;SDS011;6573;57.696;11.950;2024-01-30T06:42:22;20.10;;;13.40;;
13014;SDS011;6573;57.696;11.950;2024-01-30T06:52:18;22.87;;;13.47;;
13014;SDS011;6573;57.696;11.950;2024-01-30T06:55:33;23.50;;;14.47;;
13014;SDS011;6573;57.696;11.950;2024-01-30T06:58:06;22.23;;;13.13;;
13014;SDS011;6573;57.696;11.950;2024-01-30T07:00:43;18.20;;;12.80;;
13014;SDS011;6573;57.696;11.950;2024-01-30T07:03:16;24.17;;;13.83;;
13014;SDS011;6573;57.696;11.950;2024-01-30T07:05:58;23.23;;;12.90;;
13014;SDS011;6573;57.696;11.950;2024-01-30T07:08:31;23.00;;;13.23;;
13014;SDS011;6573;57.696;11.950;2024-01-30T07:11:05;19.97;;;13.17;;
13014;SDS011;6573;57.696;11.950;2024-01-30T07:13:40;21.37;;;13.40;;
13014;SDS011;6573;57.696;11.950;2024-01-30T07:16:15;22.57;;;13.07;;
13014;SDS011;6573;57.696;11.950;2024-01-30T07:18:47;24.10;;;13.43;;
13014;SDS011;6573;57.696;11.950;2024-01-30T07:21:28;21.60;;;13.57;;
13014;SDS011;6573;57.696;11.950;2024-01-30T07:23:57;19.70;;;13.07;;
13014;SDS011;6573;57.696;11.950;2024-01-30T07:26:28;19.83;;;13.67;;
13014;SDS011;6573;57.696;11.950;2024-01-30T07:29:01;22.07;;;13.63;;
13014;SDS011;6573;57.696;11.950;2024-01-30T07:31:33;19.83;;;12.60;;
13014;SDS011;6573;57.696;11.950;2024-01-30T07:34:08;19.70;;;12.57;;
13014;SDS011;6573;57.696;11.950;2024-01-30T07:36:51;17.40;;;11.63;;
13014;SDS011;6573;57.696;11.950;2024-01-30T07:39:22;18.50;;;12.93;;
13014;SDS011;6573;57.696;11.950;2024-01-30T07:41:54;17.70;;;13.07;;
13014;SDS011;6573;57.696;11.950;2024-01-30T07:44:33;18.53;;;11.93;;
13014;SDS011;6573;57.696;11.950;2024-01-30T07:47:04;17.37;;;10.97;;
13014;SDS011;6573;57.696;11.950;2024-01-30T07:49:35;16.67;;;11.87;;
13014;SDS011;6573;57.696;11.950;2024-01-30T07:52:10;17.87;;;11.63;;
13014;SDS011;6573;57.696;11.950;2024-01-30T07:54:48;18.80;;;11.37;;
13014;SDS011;6573;57.696;11.950;2024-01-30T07:57:17;20.90;;;13.00;;
13014;SDS011;6573;57.696;11.950;2024-01-30T07:59:50;19.00;;;12.40;;
13014;SDS011;6573;57.696;11.950;2024-01-30T08:02:49;18.43;;;11.57;;
13014;SDS011;6573;57.696;11.950;2024-01-30T08:05:22;14.70;;;10.83;;
13014;SDS011;6573;57.696;11.950;2024-01-30T08:08:01;16.37;;;10.80;;
13014;SDS011;6573;57.696;11.950;2024-01-30T08:10:54;14.70;;;9.93;;
13014;SDS011;6573;57.696;11.950;2024-01-30T08:13:25;15.53;;;9.47;;
13014;SDS011;6573;57.696;11.950;2024-01-30T08:15:55;12.87;;;9.30;;
13014;SDS011;6573;57.696;11.950;2024-01-30T08:18:24;11.67;;;9.20;;
13014;SDS011;6573;57.696;11.950;2024-01-30T08:21:03;13.90;;;9.03;;
13014;SDS011;6573;57.696;11.950;2024-01-30T08:23:42;14.00;;;9.40;;
13014;SDS011;6573;57.696;11.950;2024-01-30T08:26:12;14.40;;;9.67;;
13014;SDS011;6573;57.696;11.950;2024-01-30T08:28:44;13.80;;;9.87;;
13014;SDS011;6573;57.696;11.950;2024-01-30T08:31:16;14.03;;;9.30;;
13014;SDS011;6573;57.696;11.950;2024-01-30T08:33:49;14.27;;;10.23;;
13014;SDS011;6573;57.696;11.950;2024-01-30T08:36:24;15.07;;;10.63;;
13014;SDS011;6573;57.696;11.950;2024-01-30T08:38:57;15.67;;;10.70;;
13014;SDS011;6573;57.696;11.950;2024-01-30T08:41:32;14.63;;;10.30;;
13014;SDS011;6573;57.696;11.950;2024-01-30T08:44:08;11.90;;;9.90;;
13014;SDS011;6573;57.696;11.950;2024-01-30T08:46:44;13.33;;;9.97;;
13014;SDS011;6573;57.696;11.950;2024-01-30T08:49:36;14.10;;;11.00;;
13014;SDS011;6573;57.696;11.950;2024-01-30T08:52:32;12.63;;;9.67;;
13014;SDS011;6573;57.696;11.950;2024-01-30T08:55:21;12.43;;;9.17;;
13014;SDS011;6573;57.696;11.950;2024-01-30T08:58:03;11.40;;;8.87;;
13014;SDS011;6573;57.696;11.950;2024-01-30T09:15:56;14.10;;;11.50;;
13014;SDS011;6573;57.696;11.950;2024-01-30T10:00:43;16.73;;;13.23;;
13014;SDS011;6573;57.696;11.950;2024-01-30T10:18:53;13.03;;;10.93;;
13014;SDS011;6573;57.696;11.950;2024-01-30T10:21:49;15.13;;;12.00;;
13014;SDS011;6573;57.696;11.950;2024-01-30T10:25:01;15.87;;;12.53;;
13014;SDS011;6573;57.696;11.950;2024-01-30T10:28:05;14.50;;;12.00;;
13014;SDS011;6573;57.696;11.950;2024-01-30T10:30:37;14.20;;;11.73;;
13014;SDS011;6573;57.696;11.950;2024-01-30T10:33:27;12.77;;;10.27;;
13014;SDS011;6573;57.696;11.950;2024-01-30T10:36:10;14.50;;;10.47;;
